Time;durP1;ratioP1;P1;durP2;ratioP2;P2;SDS_P1;SDS_P2;PMS_P1;PMS_P2;Temp;Humidity;BMP_temperature;BMP_pressure;BME280_temperature;BME280_humidity;BME280_pressure;Samples;Min_cycle;Max_cycle;Signal;HPM_P1;HPM_P2
2021/03/09 00:00:13;;;;;;;27.13;19.80;;;-1.60;95.80;;;;;;5047940;28;20450;-84
2021/03/09 00:02:40;;;;;;;34.23;20.20;;;-1.60;95.50;;;;;;5050510;28;20445;-80
2021/03/09 00:05:07;;;;;;;34.70;20.17;;;-1.80;95.90;;;;;;5043803;28;20481;-81
2021/03/09 00:07:34;;;;;;;31.63;20.03;;;-1.80;96.90;;;;;;5048783;28;21108;-81
2021/03/09 00:10:00;;;;;;;34.73;20.03;;;-1.80;97.30;;;;;;5051670;28;20447;-82
2021/03/09 00:12:29;;;;;;;28.47;20.40;;;-1.80;98.80;;;;;;5036881;28;20443;-82
2021/03/09 00:14:57;;;;;;;25.47;18.57;;;-1.90;99.30;;;;;;5036572;28;20453;-82
2021/03/09 00:17:24;;;;;;;28.53;21.13;;;-1.90;99.50;;;;;;5035636;28;20470;-81
2021/03/09 00:19:50;;;;;;;32.60;20.97;;;-1.90;99.90;;;;;;5050525;28;20606;-84
2021/03/09 00:22:17;;;;;;;30.90;19.70;;;-1.80;99.90;;;;;;5052886;28;20968;-82
2021/03/09 00:24:43;;;;;;;34.67;20.40;;;-1.80;99.90;;;;;;5037086;28;20472;-81
2021/03/09 00:27:12;;;;;;;31.47;20.00;;;-1.80;99.90;;;;;;5041845;28;20469;-81
2021/03/09 00:29:39;;;;;;;31.20;20.33;;;-1.80;99.90;;;;;;5030189;28;21269;-79
2021/03/09 00:32:08;;;;;;;34.90;21.20;;;-1.80;99.90;;;;;;5014569;28;20457;-82
2021/03/09 00:34:35;;;;;;;33.10;19.73;;;-1.80;99.90;;;;;;5038383;28;20452;-80
2021/03/09 00:37:02;;;;;;;33.33;20.17;;;-1.80;99.90;;;;;;5038141;28;20492;-83
2021/03/09 00:39:28;;;;;;;34.87;20.10;;;-1.80;99.90;;;;;;5040507;28;20538;-80
2021/03/09 00:41:55;;;;;;;27.90;19.40;;;-1.90;99.90;;;;;;5026685;28;20943;-82
2021/03/09 00:44:21;;;;;;;30.77;20.53;;;-1.90;99.90;;;;;;5042398;28;20531;-80
2021/03/09 00:46:49;;;;;;;31.33;20.57;;;-1.90;99.90;;;;;;5033825;28;20538;-80
2021/03/09 00:49:16;;;;;;;33.90;20.13;;;-1.90;99.90;;;;;;5038630;28;20476;-80
2021/03/09 00:51:43;;;;;;;32.73;21.70;;;-1.90;99.90;;;;;;5042007;28;20490;-80
2021/03/09 00:54:10;;;;;;;39.10;20.63;;;-1.80;99.90;;;;;;5033774;28;20504;-80
2021/03/09 00:56:37;;;;;;;36.40;20.47;;;-1.80;99.90;;;;;;5044112;28;20459;-81
2021/03/09 00:59:03;;;;;;;32.30;20.47;;;-1.80;99.90;;;;;;5029352;28;20477;-81
2021/03/09 01:01:30;;;;;;;31.13;20.33;;;-1.80;99.90;;;;;;5038119;28;20464;-81
2021/03/09 01:03:56;;;;;;;40.77;22.93;;;-1.80;99.90;;;;;;5030940;28;20458;-80
2021/03/09 01:06:23;;;;;;;46.63;24.07;;;-1.80;99.90;;;;;;5036511;28;21189;-82
2021/03/09 01:08:50;;;;;;;35.90;23.67;;;-1.80;99.90;;;;;;5045000;28;20451;-81
2021/03/09 01:11:17;;;;;;;38.83;24.93;;;-1.80;99.90;;;;;;5042970;28;20598;-83
2021/03/09 01:13:44;;;;;;;36.33;23.40;;;-1.70;99.90;;;;;;5032575;28;20551;-81
2021/03/09 01:16:11;;;;;;;39.60;24.10;;;-1.80;99.90;;;;;;5030409;28;20453;-80
2021/03/09 01:18:38;;;;;;;38.37;23.73;;;-1.80;99.90;;;;;;5023417;28;20689;-81
2021/03/09 01:21:05;;;;;;;35.50;22.17;;;-1.90;99.90;;;;;;5040517;28;20453;-80
2021/03/09 01:23:32;;;;;;;29.50;20.10;;;-1.90;99.90;;;;;;5035952;28;20487;-81
2021/03/09 01:25:58;;;;;;;35.60;21.97;;;-2.00;99.90;;;;;;5021343;28;20538;-80
2021/03/09 01:28:25;;;;;;;39.00;22.67;;;-2.00;99.90;;;;;;5042510;28;20450;-82
2021/03/09 01:30:51;;;;;;;36.33;23.23;;;-2.00;99.90;;;;;;5053674;28;20497;-82
2021/03/09 01:33:17;;;;;;;33.80;20.30;;;-2.10;99.90;;;;;;5037925;28;20454;-84
2021/03/09 01:35:44;;;;;;;40.27;21.00;;;-2.10;99.90;;;;;;5038605;28;20445;-83
2021/03/09 01:38:10;;;;;;;30.47;20.97;;;-2.10;99.90;;;;;;5031584;28;20482;-80
2021/03/09 01:40:37;;;;;;;32.43;20.30;;;-2.10;99.90;;;;;;5045584;28;20448;-84
2021/03/09 01:43:05;;;;;;;34.07;20.10;;;-2.00;99.90;;;;;;5051887;28;20543;-80
2021/03/09 01:45:31;;;;;;;32.17;20.30;;;-2.00;99.90;;;;;;5045700;28;20521;-80
2021/03/09 01:48:01;;;;;;;33.80;20.20;;;-2.00;99.90;;;;;;5050985;28;20463;-79
2021/03/09 01:50:29;;;;;;;32.40;20.00;;;-2.00;99.90;;;;;;5040653;28;20439;-80
2021/03/09 01:52:58;;;;;;;31.30;19.90;;;-2.10;99.90;;;;;;5040725;28;20549;-80
2021/03/09 01:55:24;;;;;;;30.30;20.63;;;-2.00;99.90;;;;;;5042256;28;20537;-80
2021/03/09 01:57:52;;;;;;;34.70;19.27;;;-2.10;99.90;;;;;;5052239;28;20533;-81
2021/03/09 02:00:19;;;;;;;28.47;19.27;;;-2.00;99.90;;;;;;5040207;28;20884;-82
2021/03/09 02:02:47;;;;;;;32.47;20.93;;;-2.10;99.90;;;;;;5033392;28;20472;-83
2021/03/09 02:05:14;;;;;;;33.63;21.40;;;-2.10;99.90;;;;;;5049367;28;20444;-81
2021/03/09 02:07:41;;;;;;;30.43;19.40;;;-2.00;99.90;;;;;;5054159;28;20491;-80
2021/03/09 02:10:11;;;;;;;31.10;19.30;;;-2.10;99.90;;;;;;5039340;28;20464;-80
2021/03/09 02:12:49;;;;;;;34.87;21.00;;;-2.10;99.90;;;;;;5040808;28;20525;-84
2021/03/09 02:15:24;;;;;;;39.47;19.67;;;-2.00;99.90;;;;;;5049200;28;20561;-81
2021/03/09 02:17:56;;;;;;;33.73;19.87;;;-2.00;99.90;;;;;;5033764;28;20498;-82
2021/03/09 02:20:52;;;;;;;34.87;21.33;;;-2.00;99.90;;;;;;5040557;28;21116;-81
2021/03/09 02:24:00;;;;;;;28.13;17.70;;;-1.90;99.90;;;;;;5047476;28;20519;-80
2021/03/09 02:27:06;;;;;;;34.73;19.70;;;-2.00;99.90;;;;;;5030521;28;20456;-81
2021/03/09 02:30:03;;;;;;;31.67;18.37;;;-2.00;99.90;;;;;;5041700;28;20539;-81
2021/03/09 02:32:31;;;;;;;32.40;20.70;;;-2.10;99.90;;;;;;5064603;28;20491;-80
2021/03/09 02:35:00;;;;;;;29.93;18.40;;;-2.10;99.90;;;;;;5046802;28;20435;-81
2021/03/09 02:37:31;;;;;;;28.20;19.00;;;-2.10;99.90;;;;;;5065622;28;20478;-80
2021/03/09 02:39:59;;;;;;;26.80;17.93;;;-2.20;99.90;;;;;;5043312;28;20480;-81
2021/03/09 02:42:27;;;;;;;28.23;19.10;;;-2.20;99.90;;;;;;5049767;28;20455;-80
2021/03/09 02:44:57;;;;;;;34.63;20.10;;;-2.20;99.90;;;;;;5046965;28;20492;-82
2021/03/09 02:47:25;;;;;;;28.80;18.73;;;-2.20;99.90;;;;;;5043756;28;20454;-80
2021/03/09 02:49:54;;;;;;;33.00;18.80;;;-2.20;99.90;;;;;;5036926;28;20489;-80
2021/03/09 02:52:23;;;;;;;26.90;18.40;;;-2.20;99.90;;;;;;5029510;28;20708;-80
2021/03/09 02:54:52;;;;;;;30.87;18.70;;;-2.20;99.90;;;;;;5051963;28;20453;-83
2021/03/09 02:57:19;;;;;;;33.30;19.53;;;-2.20;99.90;;;;;;5060660;28;20499;-83
2021/03/09 02:59:47;;;;;;;29.70;19.13;;;-2.30;99.90;;;;;;5056895;28;20508;-79
2021/03/09 03:02:17;;;;;;;28.13;18.70;;;-2.20;99.90;;;;;;5050668;28;20451;-78
2021/03/09 03:04:48;;;;;;;30.50;18.63;;;-2.30;99.90;;;;;;5033583;28;21040;-81
2021/03/09 03:07:16;;;;;;;30.10;19.03;;;-2.20;99.90;;;;;;5053620;28;20484;-80
2021/03/09 03:09:43;;;;;;;31.00;17.37;;;-2.20;99.90;;;;;;5045618;28;20533;-82
2021/03/09 03:12:11;;;;;;;34.27;20.30;;;-2.20;99.90;;;;;;5057970;28;20543;-80
2021/03/09 03:14:40;;;;;;;31.13;18.60;;;-2.20;99.90;;;;;;5045538;28;20459;-79
2021/03/09 03:17:09;;;;;;;28.10;18.07;;;-2.20;99.90;;;;;;5037226;28;20514;-79
2021/03/09 03:19:36;;;;;;;34.60;20.63;;;-2.20;99.90;;;;;;5009460;28;20454;-81
2021/03/09 03:22:04;;;;;;;33.47;20.33;;;-2.20;99.90;;;;;;5018899;28;20462;-79
2021/03/09 03:24:31;;;;;;;33.23;19.87;;;-2.10;99.90;;;;;;5053664;28;20459;-82
2021/03/09 03:26:58;;;;;;;30.73;19.70;;;-2.20;99.90;;;;;;5046364;28;20452;-82
2021/03/09 03:29:25;;;;;;;38.13;19.07;;;-2.20;99.90;;;;;;5044817;28;20782;-80
2021/03/09 03:31:53;;;;;;;31.30;19.50;;;-2.20;99.90;;;;;;5046492;28;20844;-81
2021/03/09 03:34:21;;;;;;;31.50;19.50;;;-2.20;99.90;;;;;;5024676;28;20595;-80
2021/03/09 03:36:52;;;;;;;28.57;17.87;;;-2.20;99.90;;;;;;5015742;28;20539;-80
2021/03/09 03:39:20;;;;;;;32.77;19.80;;;-2.30;99.90;;;;;;5046663;28;20481;-81
2021/03/09 03:41:47;;;;;;;33.73;19.57;;;-2.30;99.90;;;;;;5043011;28;20972;-82
2021/03/09 03:44:13;;;;;;;28.03;18.70;;;-2.30;99.90;;;;;;5045338;28;20485;-81
2021/03/09 03:46:40;;;;;;;37.23;19.90;;;-2.30;99.90;;;;;;5045929;28;20457;-80
2021/03/09 03:49:09;;;;;;;29.90;18.27;;;-2.30;99.90;;;;;;5050920;28;20456;-81
2021/03/09 03:51:39;;;;;;;30.27;19.43;;;-2.30;99.90;;;;;;5053276;28;20454;-82
2021/03/09 03:54:15;;;;;;;33.30;19.03;;;-2.20;99.90;;;;;;5043512;28;20466;-81
2021/03/09 03:56:51;;;;;;;36.03;18.30;;;-2.30;99.90;;;;;;5041809;28;20449;-84
2021/03/09 03:59:22;;;;;;;35.23;20.43;;;-2.30;99.90;;;;;;5057406;28;20456;-84
2021/03/09 04:01:53;;;;;;;34.47;20.10;;;-2.30;99.90;;;;;;5020033;28;20564;-84
2021/03/09 04:04:22;;;;;;;29.43;17.07;;;-2.30;99.90;;;;;;5043707;28;21057;-81
2021/03/09 04:06:52;;;;;;;37.80;20.67;;;-2.40;98.80;;;;;;5047090;28;20508;-80
2021/03/09 04:09:21;;;;;;;33.87;18.70;;;-2.40;98.30;;;;;;5059980;28;20466;-79
2021/03/09 04:11:55;;;;;;;30.80;18.83;;;-2.40;98.20;;;;;;5054924;28;20490;-80
2021/03/09 04:14:24;;;;;;;23.70;17.00;;;-2.50;97.00;;;;;;5039180;28;20785;-80
2021/03/09 04:16:53;;;;;;;24.20;16.70;;;-2.50;98.00;;;;;;5034713;28;20469;-80
2021/03/09 04:19:24;;;;;;;27.13;17.20;;;-2.50;97.80;;;;;;5050818;28;20480;-80
2021/03/09 04:21:53;;;;;;;28.37;18.33;;;-2.60;97.50;;;;;;5041876;28;20452;-80
2021/03/09 04:24:21;;;;;;;27.80;17.17;;;-2.60;97.20;;;;;;5025535;28;20486;-81
2021/03/09 04:26:50;;;;;;;29.77;17.80;;;-2.60;97.00;;;;;;5042535;28;20470;-81
2021/03/09 04:29:17;;;;;;;28.03;17.40;;;-2.60;97.20;;;;;;5042178;28;20466;-81
2021/03/09 04:31:45;;;;;;;28.70;17.93;;;-2.60;97.70;;;;;;5053860;28;21030;-81
2021/03/09 04:34:13;;;;;;;24.10;16.20;;;-2.60;97.60;;;;;;5035000;28;20490;-81
2021/03/09 04:36:41;;;;;;;30.27;18.33;;;-2.50;98.90;;;;;;5028574;28;20473;-81
2021/03/09 04:39:09;;;;;;;31.80;18.70;;;-2.50;98.40;;;;;;5044886;28;20478;-81
2021/03/09 04:41:36;;;;;;;31.67;17.70;;;-2.50;99.20;;;;;;5036541;28;20472;-81
2021/03/09 04:44:04;;;;;;;25.17;18.20;;;-2.50;99.10;;;;;;5046468;28;20545;-81
2021/03/09 04:46:31;;;;;;;26.77;16.43;;;-2.50;98.60;;;;;;5042802;28;20453;-80
2021/03/09 04:48:59;;;;;;;29.00;17.80;;;-2.50;98.60;;;;;;5039016;28;20473;-82
2021/03/09 04:51:26;;;;;;;30.20;17.57;;;-2.50;98.30;;;;;;5033903;28;20527;-80
2021/03/09 04:53:54;;;;;;;32.00;17.90;;;-2.50;97.80;;;;;;5049193;28;20453;-81
2021/03/09 04:56:22;;;;;;;28.53;17.17;;;-2.50;97.80;;;;;;5040504;28;20454;-82
2021/03/09 04:58:52;;;;;;;25.43;16.87;;;-2.50;97.90;;;;;;5049940;28;20543;-82
2021/03/09 05:01:20;;;;;;;26.50;17.67;;;-2.50;97.00;;;;;;5046107;28;20495;-81
2021/03/09 05:03:47;;;;;;;27.07;17.60;;;-2.40;98.30;;;;;;5061062;28;20447;-81
2021/03/09 05:06:13;;;;;;;24.90;15.70;;;-2.30;99.00;;;;;;5067923;28;20443;-81
2021/03/09 05:08:40;;;;;;;27.63;16.33;;;-2.20;98.70;;;;;;5053589;28;20449;-81
2021/03/09 05:11:07;;;;;;;26.87;16.27;;;-2.10;97.30;;;;;;5051417;28;20458;-81
2021/03/09 05:13:34;;;;;;;29.73;16.97;;;-2.00;95.90;;;;;;5041176;28;20460;-81
2021/03/09 05:16:01;;;;;;;29.77;18.10;;;-2.10;94.50;;;;;;5041828;28;20530;-81
2021/03/09 05:18:29;;;;;;;29.73;16.57;;;-2.10;94.20;;;;;;5050553;28;20461;-81
2021/03/09 05:20:55;;;;;;;27.73;16.90;;;-2.10;94.30;;;;;;5046455;28;20554;-81
2021/03/09 05:23:22;;;;;;;25.80;16.23;;;-2.20;94.20;;;;;;5043660;28;20477;-80
2021/03/09 05:25:49;;;;;;;25.20;17.50;;;-2.20;93.90;;;;;;5034822;28;20458;-79
2021/03/09 05:28:15;;;;;;;29.20;16.67;;;-2.10;93.50;;;;;;5042033;28;20469;-81
2021/03/09 05:30:42;;;;;;;23.23;16.27;;;-2.10;93.80;;;;;;5027023;28;20462;-81
2021/03/09 05:33:09;;;;;;;40.80;17.23;;;-2.10;93.40;;;;;;5060174;28;20485;-80
2021/03/09 05:35:37;;;;;;;28.63;17.17;;;-2.10;92.80;;;;;;5055208;28;20503;-80
2021/03/09 05:38:05;;;;;;;29.47;16.43;;;-2.10;93.40;;;;;;5047587;28;20828;-81
2021/03/09 05:40:31;;;;;;;24.20;16.13;;;-2.00;93.70;;;;;;5041264;28;20457;-80
2021/03/09 05:42:58;;;;;;;24.93;16.03;;;-1.90;92.40;;;;;;5040261;28;20468;-80
2021/03/09 05:45:37;;;;;;;25.73;15.90;;;-2.00;92.10;;;;;;5065650;28;20460;-80
2021/03/09 05:48:06;;;;;;;25.53;15.97;;;-2.00;92.00;;;;;;5053916;28;20453;-82
2021/03/09 05:50:34;;;;;;;25.50;16.10;;;-2.00;91.90;;;;;;5065883;28;20465;-81
2021/03/09 05:53:03;;;;;;;24.87;16.00;;;-2.00;91.80;;;;;;5046393;28;20463;-81
2021/03/09 05:55:29;;;;;;;22.33;15.23;;;-2.00;91.20;;;;;;5047338;28;20453;-81
2021/03/09 05:57:58;;;;;;;24.90;16.17;;;-1.90;91.10;;;;;;5036533;28;20478;-82
2021/03/09 06:00:26;;;;;;;24.57;15.63;;;-1.80;91.10;;;;;;5046697;28;20488;-82
2021/03/09 06:02:54;;;;;;;25.50;16.50;;;-1.80;90.70;;;;;;5055641;28;20503;-82
2021/03/09 06:05:23;;;;;;;20.43;16.00;;;-1.70;91.00;;;;;;5041258;28;20780;-82
2021/03/09 06:07:53;;;;;;;29.80;17.83;;;-1.60;90.70;;;;;;5056610;28;20457;-83
2021/03/09 06:10:24;;;;;;;34.67;19.30;;;-1.60;90.30;;;;;;5055382;28;20783;-81
2021/03/09 06:12:51;;;;;;;32.00;19.27;;;-1.50;90.00;;;;;;5047133;28;20487;-82
2021/03/09 06:15:18;;;;;;;29.13;16.10;;;-1.50;89.60;;;;;;5021330;28;20923;-81
2021/03/09 06:17:56;;;;;;;23.93;15.37;;;-1.40;89.30;;;;;;5025554;28;20473;-82
2021/03/09 06:20:26;;;;;;;24.07;15.53;;;-1.40;87.20;;;;;;5024596;28;20517;-82
2021/03/09 06:22:55;;;;;;;25.00;15.50;;;-1.30;87.70;;;;;;5029997;28;20499;-82
2021/03/09 06:25:25;;;;;;;27.53;14.80;;;-1.20;86.90;;;;;;5032183;28;20446;-82
2021/03/09 06:30:36;;;;;;;23.57;15.07;;;-1.10;85.60;;;;;;5061452;28;20455;-81
2021/03/09 06:33:05;;;;;;;22.73;14.20;;;-1.10;85.10;;;;;;5058657;28;20466;-82
2021/03/09 06:35:35;;;;;;;26.10;15.70;;;-0.90;85.20;;;;;;5047824;28;20469;-81
2021/03/09 06:38:23;;;;;;;25.03;16.13;;;-0.80;83.80;;;;;;5050443;28;20942;-82
2021/03/09 06:41:11;;;;;;;24.90;15.10;;;-0.80;82.30;;;;;;5050723;28;20438;-82
2021/03/09 06:43:39;;;;;;;24.03;13.70;;;-0.60;81.60;;;;;;5049664;28;20473;-82
2021/03/09 06:46:18;;;;;;;25.37;15.50;;;-0.60;82.90;;;;;;5051618;28;20462;-81
2021/03/09 06:48:46;;;;;;;25.50;15.23;;;-0.70;79.90;;;;;;5056482;28;20454;-82
2021/03/09 06:51:30;;;;;;;25.57;15.40;;;-0.60;80.20;;;;;;5051289;28;20510;-80
2021/03/09 06:54:05;;;;;;;24.67;15.53;;;-0.60;79.90;;;;;;5039828;28;20493;-80
2021/03/09 06:56:37;;;;;;;26.70;15.60;;;-0.50;80.00;;;;;;5054165;28;20463;-81
2021/03/09 06:59:21;;;;;;;23.30;15.73;;;-0.30;80.10;;;;;;5045688;28;20483;-82
2021/03/09 07:02:06;;;;;;;30.47;14.90;;;-0.40;79.40;;;;;;5031873;28;20467;-81
2021/03/09 07:04:34;;;;;;;24.77;15.70;;;-0.10;79.30;;;;;;5015533;28;20458;-82
2021/03/09 07:07:07;;;;;;;27.97;15.50;;;0.10;77.70;;;;;;5028573;28;20441;-82
2021/03/09 07:09:40;;;;;;;24.90;15.37;;;-0.10;76.70;;;;;;5046636;28;20473;-82
2021/03/09 07:12:11;;;;;;;24.83;15.27;;;0.00;77.10;;;;;;5053889;28;20989;-80
2021/03/09 07:14:41;;;;;;;25.30;15.73;;;0.30;76.50;;;;;;5029299;28;20518;-81
2021/03/09 07:17:09;;;;;;;25.77;16.50;;;0.50;76.00;;;;;;5040010;28;20447;-83
2021/03/09 07:19:40;;;;;;;24.80;14.90;;;0.60;75.60;;;;;;5045891;28;20478;-82
2021/03/09 07:22:15;;;;;;;23.60;15.70;;;0.70;74.60;;;;;;5027639;28;20450;-82
2021/03/09 07:24:49;;;;;;;24.83;15.60;;;1.00;74.30;;;;;;5046300;28;20441;-80
2021/03/09 07:27:23;;;;;;;26.07;15.67;;;1.10;73.60;;;;;;5047146;28;20464;-82
2021/03/09 07:29:59;;;;;;;19.00;12.63;;;0.70;72.90;;;;;;5061696;28;20952;-82
2021/03/09 07:32:31;;;;;;;25.07;15.50;;;1.00;73.40;;;;;;5045601;28;20446;-82
2021/03/09 07:35:01;;;;;;;27.40;13.93;;;1.00;73.00;;;;;;5046935;28;20486;-82
2021/03/09 07:37:28;;;;;;;26.03;14.47;;;1.10;72.60;;;;;;5032060;28;20938;-80
2021/03/09 07:39:56;;;;;;;22.10;14.23;;;1.10;73.00;;;;;;5030106;28;20470;-80
2021/03/09 07:42:26;;;;;;;24.90;16.00;;;1.20;72.50;;;;;;5036909;28;20458;-80
2021/03/09 07:44:53;;;;;;;27.83;15.40;;;1.00;72.90;;;;;;5034408;28;20468;-82
2021/03/09 07:47:22;;;;;;;24.13;14.40;;;0.70;72.30;;;;;;5048794;28;20539;-79
2021/03/09 07:49:48;;;;;;;24.43;14.27;;;0.60;73.20;;;;;;5035224;28;20575;-79
2021/03/09 07:52:20;;;;;;;31.27;16.17;;;0.50;73.30;;;;;;5034981;28;20474;-79
2021/03/09 07:55:18;;;;;;;21.23;15.10;;;0.80;73.80;;;;;;5035324;28;20450;-82
2021/03/09 07:57:47;;;;;;;24.23;14.70;;;0.80;72.90;;;;;;5031209;28;20461;-83
2021/03/09 08:00:16;;;;;;;27.80;15.65;;;0.70;74.70;;;;;;5033938;28;20445;-76
2021/03/09 08:02:53;;;;;;;26.60;15.70;;;0.80;74.40;;;;;;5013819;28;20200;-76
2021/03/09 08:05:21;;;;;;;21.92;15.48;;;1.10;72.50;;;;;;5031938;28;20528;-76
2021/03/09 08:07:58;;;;;;;31.87;16.50;;;1.50;73.00;;;;;;5030999;28;20207;-75
2021/03/09 08:10:52;;;;;;;39.40;16.70;;;1.50;72.30;;;;;;5027231;28;20996;-77
2021/03/09 08:13:29;;;;;;;24.73;15.67;;;1.60;72.20;;;;;;5029277;28;20455;-76
2021/03/09 08:16:29;;;;;;;24.80;15.83;;;1.40;71.60;;;;;;5031480;28;20465;-76
2021/03/09 08:19:04;;;;;;;25.57;15.67;;;1.70;71.80;;;;;;5031925;28;20973;-79
2021/03/09 08:22:04;;;;;;;25.80;16.57;;;1.70;71.20;;;;;;5036307;28;20469;-75
2021/03/09 08:24:50;;;;;;;22.60;16.03;;;2.10;70.90;;;;;;5022027;28;20561;-74
2021/03/09 08:27:40;;;;;;;21.20;14.40;;;2.20;71.10;;;;;;5027766;28;20447;-75
2021/03/09 08:30:38;;;;;;;28.97;16.60;;;2.00;70.10;;;;;;5032370;28;20454;-76
2021/03/09 08:33:35;;;;;;;36.83;17.17;;;2.90;70.00;;;;;;5031566;28;20467;-75
2021/03/09 08:36:33;;;;;;;20.50;14.60;;;3.00;68.90;;;;;;5056951;28;20452;-77
2021/03/09 08:39:15;;;;;;;22.30;16.07;;;2.50;68.00;;;;;;5030656;28;21025;-77
2021/03/09 08:42:06;;;;;;;21.73;15.90;;;2.90;68.40;;;;;;5029278;28;20454;-78
2021/03/09 08:44:34;;;;;;;28.70;15.10;;;2.90;67.40;;;;;;5021626;28;20954;-77
2021/03/09 08:47:06;;;;;;;24.10;16.03;;;3.00;67.60;;;;;;5042479;28;20525;-77
2021/03/09 08:49:48;;;;;;;34.50;20.95;;;3.50;67.80;;;;;;5027966;28;20456;-76
2021/03/09 08:52:39;;;;;;;25.25;18.40;;;3.70;67.20;;;;;;5026155;28;20491;-76
2021/03/09 08:55:07;;;;;;;24.53;17.23;;;3.80;66.80;;;;;;5032923;28;20204;-76
2021/03/09 08:57:33;;;;;;;25.10;20.63;;;4.00;66.60;;;;;;5022842;28;20534;-77
2021/03/09 09:00:03;;;;;;;24.90;16.93;;;4.20;66.10;;;;;;5025905;28;20244;-75
2021/03/09 09:02:31;;;;;;;27.07;19.60;;;3.80;65.00;;;;;;5018573;28;20454;-76
2021/03/09 09:05:01;;;;;;;24.47;17.73;;;4.10;65.10;;;;;;5006643;28;20462;-71
2021/03/09 09:07:29;;;;;;;27.97;18.40;;;4.30;64.40;;;;;;5023702;28;20445;-73
2021/03/09 09:09:58;;;;;;;27.10;18.07;;;4.40;64.30;;;;;;5026029;28;20457;-75
2021/03/09 09:12:30;;;;;;;25.70;16.43;;;4.60;63.70;;;;;;5022366;28;20440;-73
2021/03/09 09:15:17;;;;;;;22.50;16.27;;;4.70;63.40;;;;;;5020889;28;20559;-80
2021/03/09 09:17:48;;;;;;;23.60;20.07;;;4.90;62.70;;;;;;5030975;28;20481;-79
2021/03/09 09:20:18;;;;;;;49.45;19.65;;;5.10;61.70;;;;;;5044530;28;20445;-77
2021/03/09 09:22:46;;;;;;;23.63;18.00;;;5.30;61.10;;;;;;5038489;28;20247;-78
2021/03/09 09:25:15;;;;;;;24.13;16.33;;;5.30;60.50;;;;;;5034312;28;20460;-79
2021/03/09 09:27:44;;;;;;;22.17;17.30;;;5.40;60.10;;;;;;5024853;28;20441;-79
2021/03/09 09:30:13;;;;;;;22.60;17.47;;;5.30;59.20;;;;;;5034411;28;20450;-80
2021/03/09 09:32:49;;;;;;;25.37;17.90;;;5.10;58.50;;;;;;5036126;28;20459;-78
2021/03/09 09:35:17;;;;;;;23.23;16.10;;;5.70;59.00;;;;;;5023362;28;20457;-78
2021/03/09 09:37:49;;;;;;;31.30;18.93;;;5.80;57.80;;;;;;5029474;28;20558;-79
2021/03/09 09:40:20;;;;;;;52.50;18.97;;;5.90;57.30;;;;;;5036642;28;20457;-81
2021/03/09 09:42:55;;;;;;;26.93;17.27;;;5.90;56.90;;;;;;5029364;28;20454;-77
2021/03/09 09:45:22;;;;;;;37.27;17.20;;;6.00;56.90;;;;;;5023109;28;20507;-78
2021/03/09 09:47:51;;;;;;;31.80;17.93;;;6.20;56.30;;;;;;5035834;28;20440;-79
2021/03/09 09:50:18;;;;;;;27.93;17.13;;;6.60;55.80;;;;;;5029756;28;20479;-78
2021/03/09 09:53:02;;;;;;;29.13;19.77;;;6.60;55.30;;;;;;5026729;28;20459;-78
2021/03/09 09:55:30;;;;;;;20.67;16.40;;;7.00;54.90;;;;;;5028777;28;20580;-79
2021/03/09 09:57:59;;;;;;;32.33;18.02;;;7.00;54.30;;;;;;5025654;28;20482;-77
2021/03/09 10:00:29;;;;;;;25.83;19.75;;;6.90;54.10;;;;;;5025063;28;20464;-78
2021/03/09 10:03:10;;;;;;;25.33;16.97;;;7.10;53.60;;;;;;5030630;28;20243;-77
2021/03/09 10:05:38;;;;;;;21.50;17.10;;;7.10;53.10;;;;;;5034014;28;20476;-78
2021/03/09 10:08:06;;;;;;;25.23;18.20;;;6.90;53.80;;;;;;5033544;28;20457;-77
2021/03/09 10:10:34;;;;;;;24.03;17.73;;;7.20;53.00;;;;;;5032173;28;20465;-78
2021/03/09 10:13:18;;;;;;;52.15;23.27;;;7.20;52.70;;;;;;5021820;28;20462;-80
2021/03/09 10:15:46;;;;;;;25.00;18.60;;;7.20;52.20;;;;;;5023699;28;20278;-76
2021/03/09 10:18:20;;;;;;;21.13;16.97;;;7.40;52.00;;;;;;5037898;28;20989;-76
2021/03/09 10:20:58;;;;;;;42.07;19.13;;;7.60;51.80;;;;;;5035679;28;20524;-77
2021/03/09 10:23:25;;;;;;;24.90;18.03;;;7.80;51.40;;;;;;5037457;28;20558;-78
2021/03/09 10:25:57;;;;;;;26.38;19.00;;;7.80;50.80;;;;;;5021666;28;20955;-74
2021/03/09 10:28:25;;;;;;;25.77;17.63;;;7.90;50.50;;;;;;5019131;28;20207;-76
2021/03/09 10:30:52;;;;;;;24.83;18.27;;;7.40;49.30;;;;;;5021127;28;20454;-75
2021/03/09 10:33:19;;;;;;;19.08;16.05;;;7.00;49.70;;;;;;5015467;28;20947;-75
2021/03/09 10:36:07;;;;;;;22.40;17.23;;;7.30;50.30;;;;;;5030778;28;20294;-74
2021/03/09 10:38:34;;;;;;;27.38;20.98;;;7.90;50.30;;;;;;5018446;28;20514;-75
2021/03/09 10:41:01;;;;;;;23.07;18.33;;;7.80;49.50;;;;;;5017035;28;20204;-75
2021/03/09 10:43:41;;;;;;;26.40;18.47;;;7.80;49.30;;;;;;5023389;28;20442;-75
2021/03/09 10:46:09;;;;;;;20.50;15.63;;;7.70;49.50;;;;;;5025593;28;20479;-74
2021/03/09 10:48:37;;;;;;;20.37;16.13;;;7.20;48.40;;;;;;5025081;28;20462;-75
2021/03/09 10:51:13;;;;;;;19.00;14.10;;;6.90;48.80;;;;;;5024425;28;20519;-75
2021/03/09 10:53:40;;;;;;;25.43;16.40;;;6.50;49.20;;;;;;5032693;28;21225;-76
2021/03/09 10:56:07;;;;;;;20.07;16.10;;;6.60;49.40;;;;;;5020687;28;20462;-75
2021/03/09 10:58:33;;;;;;;22.47;15.80;;;6.70;49.10;;;;;;5035615;28;20511;-77
2021/03/09 11:01:00;;;;;;;23.45;18.80;;;7.10;48.90;;;;;;5048075;28;20452;-78
2021/03/09 11:03:27;;;;;;;26.93;18.97;;;7.30;48.60;;;;;;5026791;28;23635;-83
2021/03/09 11:05:57;;;;;;;25.27;16.33;;;7.10;48.70;;;;;;5032945;28;20508;-80
2021/03/09 11:08:24;;;;;;;27.13;15.73;;;6.90;48.70;;;;;;5024203;28;20469;-79
2021/03/09 11:10:51;;;;;;;20.83;15.03;;;6.90;48.80;;;;;;5036893;28;20469;-82
2021/03/09 11:13:18;;;;;;;21.53;14.97;;;7.10;48.40;;;;;;5038265;28;20451;-77
2021/03/09 11:15:47;;;;;;;23.67;18.00;;;7.20;47.70;;;;;;5025565;28;20461;-76
2021/03/09 11:18:14;;;;;;;18.53;15.00;;;7.20;47.70;;;;;;5026400;28;20230;-78
2021/03/09 11:20:42;;;;;;;21.27;16.30;;;7.30;47.80;;;;;;5020982;28;20476;-77
2021/03/09 11:23:13;;;;;;;25.83;16.87;;;7.30;48.00;;;;;;5039756;28;20524;-83
2021/03/09 11:25:39;;;;;;;25.63;18.95;;;7.40;47.50;;;;;;5030107;28;20460;-78
2021/03/09 11:28:06;;;;;;;23.13;17.90;;;7.40;48.20;;;;;;5032703;28;20289;-79
2021/03/09 11:30:32;;;;;;;28.50;20.70;;;7.50;48.10;;;;;;5029260;28;20457;-77
2021/03/09 11:32:59;;;;;;;20.57;17.50;;;7.70;48.00;;;;;;5026887;28;20435;-78
2021/03/09 11:35:26;;;;;;;33.57;18.33;;;7.70;48.10;;;;;;5037649;28;20447;-77
2021/03/09 11:37:52;;;;;;;26.20;18.07;;;7.60;48.00;;;;;;5027678;28;20514;-79
2021/03/09 11:40:20;;;;;;;27.90;18.47;;;7.80;47.90;;;;;;5019096;28;20541;-77
2021/03/09 11:42:47;;;;;;;20.27;15.87;;;8.00;47.30;;;;;;5034369;28;20448;-76
2021/03/09 11:45:13;;;;;;;21.23;16.20;;;7.90;46.90;;;;;;5036486;28;20465;-77
2021/03/09 11:47:40;;;;;;;19.87;14.80;;;7.30;46.60;;;;;;5041350;28;20452;-77
2021/03/09 11:50:08;;;;;;;16.03;12.73;;;7.70;46.30;;;;;;5025004;28;20453;-73
2021/03/09 11:52:35;;;;;;;17.83;12.60;;;7.20;45.20;;;;;;5028628;28;20943;-73
2021/03/09 11:55:01;;;;;;;21.97;12.20;;;7.30;45.10;;;;;;5022153;28;20478;-73
2021/03/09 11:57:29;;;;;;;23.80;13.90;;;7.20;45.40;;;;;;5022604;28;20458;-72
2021/03/09 11:59:55;;;;;;;28.20;14.20;;;7.80;45.90;;;;;;5016825;28;20481;-73
2021/03/09 12:02:22;;;;;;;22.93;14.27;;;7.70;45.40;;;;;;5017321;28;20489;-72
2021/03/09 12:04:48;;;;;;;18.30;13.63;;;8.10;45.50;;;;;;5014756;28;20473;-74
2021/03/09 12:07:14;;;;;;;21.40;14.13;;;8.20;45.30;;;;;;5016478;28;20512;-75
2021/03/09 12:09:41;;;;;;;13.00;10.20;;;8.40;44.80;;;;;;5020637;28;21141;-73
2021/03/09 12:12:08;;;;;;;19.97;8.70;;;8.40;42.00;;;;;;5013462;28;20471;-73
2021/03/09 12:14:36;;;;;;;9.37;7.07;;;8.50;40.30;;;;;;5021009;28;20450;-73
2021/03/09 12:17:02;;;;;;;10.77;7.97;;;8.70;39.70;;;;;;5024865;28;20488;-72
2021/03/09 12:19:29;;;;;;;15.40;11.83;;;8.80;38.80;;;;;;5019233;28;21182;-74
2021/03/09 12:21:56;;;;;;;20.30;13.97;;;8.50;40.70;;;;;;5019727;28;20458;-74
2021/03/09 12:24:22;;;;;;;17.63;13.97;;;8.50;42.60;;;;;;5021179;28;20891;-73
2021/03/09 12:26:49;;;;;;;15.93;12.43;;;7.80;43.00;;;;;;5016981;28;20534;-73
2021/03/09 12:29:15;;;;;;;17.40;11.70;;;8.20;43.30;;;;;;5023449;28;20457;-73
2021/03/09 12:31:43;;;;;;;15.23;12.40;;;8.30;43.10;;;;;;5020347;28;20459;-74
2021/03/09 12:34:09;;;;;;;21.13;14.43;;;7.70;43.20;;;;;;5017443;28;20485;-73
2021/03/09 12:36:36;;;;;;;88.97;19.10;;;7.50;42.90;;;;;;5021678;28;20468;-75
2021/03/09 12:39:02;;;;;;;15.70;13.23;;;8.00;42.60;;;;;;5012818;28;20560;-73
2021/03/09 12:41:29;;;;;;;16.53;13.20;;;7.50;42.80;;;;;;5024777;28;20454;-73
2021/03/09 12:43:56;;;;;;;16.23;12.80;;;7.10;42.90;;;;;;5016820;28;20450;-73
2021/03/09 12:46:22;;;;;;;13.27;11.07;;;7.10;42.90;;;;;;5020581;28;20545;-73
2021/03/09 12:48:50;;;;;;;16.57;11.67;;;6.70;42.70;;;;;;5023693;28;20462;-73